• Join FlightAware (Why Join?)
  • Login
  • US Flag 
09:49PM EDT


 

Airport Tracker/Info


-or-


 

Live Flight TrackerFlight Track Log ✈ DAL268 ✈ 12-Sep-2013 ✈ KACK

Flight Track Log - Related Links

Times and Time Zones

All times are in EDT time to prevent confusion due to time zone crossing. See the DAL268 flight status page for this flight to view local times or setup timezone preferences in your user account.

Time Position Orientation Groundspeed Altitude Reporting Facility
EDT Latitude Longitude Course Direction KTS MPH feet Rate Location/Type
07:26PM 40.4922 -73.3078 72° East 332 382 10,600  Level Boston Center
07:27PM 40.4494 -73.1819 114° Southeast 346 398 11,600 1,200 Climbing Boston Center
07:28PM 40.4317 -73.0317 99° East 389 448 13,000 1,440 Climbing Boston Center
07:29PM 40.4781 -72.8819 68° East 399 459 14,600 1,740 Climbing Boston Center
07:30PM 40.5308 -72.7294 65° Northeast 417 480 16,600 1,980 Climbing Boston Center
07:31PM 40.7055 -72.6864 72° East  Level Estimated
07:31PM 40.5894 -72.5714 64° Northeast 444 511 18,600  Level Boston Center
07:32PM 40.6581 -72.3964 63° Northeast 476 548 20,500 1,680 Climbing Boston Center
07:33PM 40.7164 -72.2319 65° Northeast 483 556 22,100 1,380 Climbing Boston Center
07:34PM 40.7744 -72.0839 63° Northeast 488 562 23,400 1,140 Climbing Boston Center
07:35PM 40.8425 -71.9025 64° Northeast 494 568 24,400 1,260 Climbing Boston Center
07:36PM 40.9186 -71.7369 59° Northeast 500 575 26,000 1,320 Climbing Boston Center
07:37PM 41.0008 -71.5739 56° Northeast 520 598 27,100 1,020 Climbing Boston Center
07:38PM 41.0869 -71.4128 55° Northeast 533 613 28,100 1,140 Climbing Boston Center
07:39PM 41.1728 -71.2489 55° Northeast 538 619 29,400 1,200 Climbing Boston Center
07:40PM 41.2564 -71.0817 56° Northeast 544 626 30,500 780 Climbing Boston Center
07:41PM 41.3461 -70.9194 54° Northeast 539 620 31,000 240 Climbing Boston Center
07:42PM 41.4292 -70.7594 55° Northeast 539 620 31,000  Level Boston Center
07:43PM 41.5142 -70.5964 55° Northeast 539 620 31,000  Level Boston Center
07:44PM 41.5967 -70.4247 57° Northeast 544 626 31,000  Level Boston Center
07:45PM 41.6833 -70.2608 55° Northeast 544 626 31,000  Level Boston Center
07:46PM 41.7675 -70.0936 56° Northeast 544 626 31,000  Level Boston Center
07:47PM 41.8514 -69.9289 56° Northeast 538 619 31,000  Level Boston Center
07:48PM 41.9372 -69.7608 55° Northeast 545 627 31,000  Level Boston Center
07:49PM 42.0208 -69.5922 56° Northeast 540 621 31,000  Level Boston Center
07:50PM 42.0961 -69.4406 56° Northeast 540 621 31,000  Level Boston Center
07:51PM 42.1989 -69.3094 43° Northeast 540 621 31,000  Level Boston Center
07:52PM 42.2681 -69.1067 65° Northeast 543 625 31,000  Level Boston Center
07:53PM 42.3561 -68.9167 58° Northeast 546 628 31,000  Level Boston Center
07:54PM 42.3833 -68.8333 66° East 540 621 31,000  Level Moncton Center
07:55PM 42.4667 -68.6667 56° Northeast 540 621 31,000  Level Moncton Center
07:56PM 42.5333 -68.5000 61° Northeast 540 621 31,000  Level Moncton Center
07:57PM 42.6333 -68.3167 53° Northeast 540 621 31,000  Level Moncton Center
07:58PM 42.7167 -68.1500 56° Northeast 540 621 31,000  Level Moncton Center
07:59PM 42.7833 -68.0000 59° Northeast 540 621 31,000  Level Moncton Center
08:00PM 42.8667 -67.8167 58° Northeast 540 621 31,000  Level Moncton Center
08:01PM 42.9500 -67.6333 58° Northeast 540 621 31,000  Level Moncton Center
08:02PM 43.0167 -67.4667 61° Northeast 540 621 31,000  Level Moncton Center
08:03PM 43.1333 -67.2500 54° Northeast 550 633 31,000  Level Moncton Center
08:04PM 43.2000 -67.1000 59° Northeast 530 610 31,000  Level Moncton Center
08:05PM 43.2833 -66.9167 58° Northeast 540 621 31,000  Level Moncton Center
08:06PM 43.3667 -66.7667 53° Northeast 530 610 31,000  Level Moncton Center
08:07PM 43.4333 -66.5833 63° Northeast 530 610 31,000  Level Moncton Center
08:08PM 43.5167 -66.4000 58° Northeast 540 621 31,000  Level Moncton Center
08:09PM 43.5833 -66.2500 58° Northeast 530 610 31,000  Level Moncton Center
08:10PM 43.6667 -66.0667 58° Northeast 530 610 31,000  Level Moncton Center
08:11PM 43.7667 -65.8833 53° Northeast 540 621 31,000  Level Moncton Center
08:12PM 43.8333 -65.7000 63° Northeast 540 621 31,000  Level Moncton Center
08:13PM 43.9167 -65.5333 55° Northeast 540 621 31,000  Level Moncton Center
08:14PM 43.9833 -65.3500 63° Northeast 540 621 31,000  Level Moncton Center
08:15PM 44.0500 -65.1667 63° Northeast 540 621 31,000  Level Moncton Center
08:16PM 44.1333 -64.9833 58° Northeast 540 621 31,000  Level Moncton Center
08:17PM 44.2167 -64.8167 55° Northeast 540 621 31,000  Level Moncton Center
08:18PM 44.2833 -64.6333 63° Northeast 540 621 31,000  Level Moncton Center
08:19PM 44.3667 -64.4500 58° Northeast 540 621 31,000  Level Moncton Center
08:20PM 44.4333 -64.2833 61° Northeast 540 621 31,000  Level Moncton Center
08:21PM 44.5167 -64.1000 57° Northeast 530 610 31,000  Level Moncton Center
08:22PM 44.5833 -63.9000 65° Northeast 530 610 31,000  Level Moncton Center
08:23PM 44.6667 -63.7167 57° Northeast 530 610 31,000  Level Moncton Center
08:24PM 44.7333 -63.5500 61° Northeast 530 610 31,000  Level Moncton Center
08:25PM 44.8167 -63.3667 57° Northeast 530 610 31,000  Level Moncton Center
08:26PM 44.8833 -63.2000 61° Northeast 540 621 31,000  Level Moncton Center
08:27PM 44.9667 -63.0000 59° Northeast 530 610 31,000  Level Moncton Center
08:28PM 45.0333 -62.8167 63° Northeast 530 610 31,000  Level Moncton Center
08:29PM 45.1167 -62.6500 55° Northeast 530 610 31,000  Level Moncton Center
08:30PM 45.1667 -62.4500 70° East 530 610 31,000  Level Moncton Center
08:31PM 45.2333 -62.2833 60° Northeast 530 610 31,000  Level Moncton Center
08:32PM 45.3167 -62.0833 59° Northeast 530 610 31,000  Level Moncton Center
08:33PM 45.3833 -61.9000 63° Northeast 530 610 31,000  Level Moncton Center
08:34PM 45.4667 -61.7000 59° Northeast 530 610 31,000  Level Moncton Center
08:35PM 45.5167 -61.5333 67° East 530 610 31,000  Level Moncton Center
08:36PM 45.6000 -61.3333 59° Northeast 530 610 31,000  Level Moncton Center
08:37PM 45.6667 -61.1667 60° Northeast 530 610 31,000  Level Moncton Center
08:38PM 45.7333 -60.9667 64° Northeast 530 610 31,000  Level Moncton Center
08:39PM 45.8000 -60.8000 60° Northeast 530 610 31,000  Level Moncton Center
08:40PM 45.8833 -60.6000 59° Northeast 530 610 31,000  Level Moncton Center
08:41PM 45.9333 -60.4000 70° East 530 610 31,000  Level Moncton Center
08:42PM 46.0167 -60.2000 59° Northeast 540 621 31,000  Level Moncton Center
08:43PM 46.0833 -60.0333 60° Northeast 530 610 31,000  Level Moncton Center
08:44PM 46.1500 -59.8333 64° Northeast 530 610 31,000  Level Moncton Center
08:45PM 46.2167 -59.6500 62° Northeast 530 610 31,000  Level Moncton Center
08:46PM 46.2833 -59.4500 64° Northeast 530 610 31,000  Level Moncton Center
08:47PM 46.3500 -59.2833 60° Northeast 530 610 31,000  Level Moncton Center
08:48PM 46.4167 -59.0833 64° Northeast 530 610 31,000  Level Moncton Center
08:49PM 46.4833 -58.9000 62° Northeast 530 610 31,000  Level Moncton Center
08:50PM 46.5500 -58.7000 64° Northeast 530 610 31,000  Level Moncton Center
08:51PM 46.6167 -58.5000 64° Northeast 530 610 31,000  Level Moncton Center
08:52PM 46.6833 -58.3167 62° Northeast 530 610 31,000  Level Moncton Center
08:53PM 46.7333 -58.1167 70° East 540 621 31,000  Level Moncton Center
08:54PM 46.8000 -57.9333 62° Northeast 530 610 31,000  Level Moncton Center
08:55PM 46.8667 -57.7333 64° Northeast 530 610 31,000  Level Moncton Center
08:56PM 46.9167 -57.5333 70° East 540 621 31,000  Level Moncton Center
08:57PM 47.0000 -57.3167 61° Northeast 540 621 31,000 240 Level Moncton Center
08:58PM 47.0667 -57.1333 62° Northeast 540 621 31,500 840 Climbing Moncton Center
08:59PM 47.1167 -56.9167 71° East 550 633 32,700 720 Climbing Moncton Center
09:00PM 47.1833 -56.7333 62° Northeast 540 621 33,000 120 Climbing Moncton Center
09:01PM 47.2500 -56.5167 66° East 540 621 33,000  Level Moncton Center
09:02PM 47.3167 -56.3167 64° Northeast 540 621 33,000  Level Moncton Center
09:03PM 47.3667 -56.1000 71° East 540 621 33,000  Level Moncton Center
09:04PM 47.4333 -55.9167 62° Northeast 550 633 33,000  Level Moncton Center
09:05PM 47.4833 -55.7167 70° East 540 621 33,000  Level Moncton Center
09:06PM 47.5500 -55.5000 65° Northeast 540 621 33,000  Level Moncton Center
09:07PM 47.6000 -55.3000 70° East 550 633 33,000  Level Moncton Center
09:08PM 47.6667 -55.0833 65° Northeast 540 621 33,000  Level Moncton Center
09:09PM 47.7167 -54.8833 70° East 540 621 33,000  Level Moncton Center
09:10PM 47.7667 -54.6833 70° East 540 621 33,000  Level Moncton Center
09:11PM 47.8333 -54.4833 64° Northeast 540 621 33,000  Level Moncton Center
09:12PM 47.9000 -54.2667 65° Northeast 540 621 33,000  Level Moncton Center
09:13PM 47.9500 -54.0500 71° East 540 621 33,000  Level Moncton Center
09:14PM 48.0167 -53.8333 65° Northeast 550 633 33,000  Level Moncton Center
09:15PM 48.0667 -53.6333 69° East 550 633 33,000  Level Moncton Center
09:16PM 48.1333 -53.4167 65° Northeast 550 633 33,000  Level Moncton Center
09:17PM 48.1833 -53.2333 68° East 550 633 33,000  Level Moncton Center
09:18PM 48.2333 -52.9833 73° East 550 633 33,000  Level Moncton Center
09:19PM 48.2833 -52.8000 68° East 550 633 33,000  Level Moncton Center
09:20PM 48.3500 -52.5500 68° East 550 633 33,000  Level Moncton Center
09:21PM 48.4167 -52.3667 61° Northeast 550 633 33,000  Level Moncton Center
09:22PM 48.4500 -52.1500 77° East 550 633 33,000  Level Moncton Center
09:23PM 48.5167 -51.9000 68° East 550 633 33,000  Level Moncton Center
09:24PM 48.5500 -51.7167 75° East 550 633 33,000  Level Moncton Center
09:25PM 48.6167 -51.4667 68° East 550 633 33,000  Level Moncton Center
09:26PM 48.6833 -51.2667 63° Northeast 550 633 33,000  Level Moncton Center
09:27PM 48.7167 -51.0333 78° East 550 633 33,000  Level Moncton Center
09:28PM 48.7833 -50.8333 63° Northeast 550 633 33,000  Level Moncton Center
09:29PM 48.8167 -50.6167 77° East 560 644 33,000  Level Moncton Center
09:30PM 48.8833 -50.4000 65° Northeast 550 633 33,000  Level Moncton Center
09:31PM 48.9333 -50.1667 72° East 560 644 33,000  Level Moncton Center
09:32PM 49.0000 -49.8333 73° East 560 644 33,000  Level Gander Center
09:33PM 49.0667 -49.6167 65° Northeast 560 644 33,000  Level Gander Center
09:34PM 49.0000 -50.0000 69° East 563 648 33,000  Level ETMS Enhanced Traffic Management System
09:34PM 49.1167 -49.4000 69° East 560 644 33,000  Level Gander Center
09:35PM 49.1667 -49.1833 70° East 560 644 33,000  Level Gander Center
09:36PM 49.2167 -48.9667 70° East 560 644 33,000  Level Gander Center
09:37PM 49.2833 -48.7333 66° East 560 644 33,000  Level Gander Center
09:38PM 49.3167 -48.5167 77° East 560 644 33,000  Level Gander Center
09:39PM 49.3833 -48.2667 68° East 560 644 33,000  Level Gander Center
09:40PM 49.4333 -48.1000 65° Northeast 560 644 33,000  Level Gander Center
09:41PM 49.5000 -47.8500 68° East 550 633 33,000  Level Gander Center
09:43PM 49.5593 -47.5925 70° East  Level FlightAware Approximate
09:50PM 49.8344 -46.3551 71° East  Level FlightAware Approximate
09:51PM 49.8726 -46.1772 72° East  Level FlightAware Approximate
09:52PM 49.9105 -45.9990 72° East  Level FlightAware Approximate
09:53PM 49.9482 -45.8205 72° East  Level FlightAware Approximate
09:54PM 49.9856 -45.6418 72° East  Level FlightAware Approximate
09:55PM 50.0227 -45.4627 72° East  Level FlightAware Approximate
09:56PM 50.0595 -45.2834 72° East  Level FlightAware Approximate
09:57PM 50.0961 -45.1039 72° East  Level FlightAware Approximate
09:58PM 50.1324 -44.9240 72° East  Level FlightAware Approximate
09:59PM 50.1684 -44.7439 73° East  Level FlightAware Approximate
10:00PM 50.2041 -44.5635 73° East  Level FlightAware Approximate
10:01PM 50.2396 -44.3828 73° East  Level FlightAware Approximate
10:02PM 50.2747 -44.2019 73° East  Level FlightAware Approximate
10:03PM 50.3096 -44.0207 73° East  Level FlightAware Approximate
10:04PM 50.3442 -43.8392 73° East  Level FlightAware Approximate
10:05PM 50.3786 -43.6575 73° East  Level FlightAware Approximate
10:06PM 50.4126 -43.4755 74° East  Level FlightAware Approximate
10:07PM 50.4464 -43.2933 74° East  Level FlightAware Approximate
10:08PM 50.4798 -43.1108 74° East  Level FlightAware Approximate
10:09PM 50.5130 -42.9280 74° East  Level FlightAware Approximate
10:10PM 50.5459 -42.7450 74° East  Level FlightAware Approximate
10:11PM 50.5785 -42.5617 74° East  Level FlightAware Approximate
10:12PM 50.6109 -42.3782 74° East  Level FlightAware Approximate
10:13PM 50.6429 -42.1944 75° East  Level FlightAware Approximate
10:14PM 50.6746 -42.0103 75° East  Level FlightAware Approximate
10:15PM 50.7061 -41.8261 75° East  Level FlightAware Approximate
10:16PM 50.7373 -41.6415 75° East  Level FlightAware Approximate
10:16PM 51.0000 -40.0000 86° East 580 667 33,000  Level ETMS Enhanced Traffic Management System
10:17PM 50.7682 -41.4568 75° East  Level FlightAware Approximate
10:18PM 50.7987 -41.2718 75° East  Level FlightAware Approximate
10:19PM 50.8290 -41.0865 75° East  Level FlightAware Approximate
10:20PM 50.8590 -40.9010 76° East  Level FlightAware Approximate
10:21PM 50.8887 -40.7153 76° East  Level FlightAware Approximate
10:22PM 51.0696 -37.9517 88° East 580 667 33,000  Level FlightAware Transoceanic
10:23PM 51.0758 -37.6953 88° East 580 667 33,000  Level FlightAware Transoceanic
10:24PM 51.0814 -37.4388 88° East 580 667 33,000  Level FlightAware Transoceanic
10:25PM 51.0865 -37.1822 88° East 580 667 33,000  Level FlightAware Transoceanic
10:26PM 51.0910 -36.9256 89° East 580 667 33,000  Level FlightAware Transoceanic
10:27PM 51.0949 -36.6689 89° East 580 667 33,000  Level FlightAware Transoceanic
10:28PM 51.0983 -36.4123 89° East 580 667 33,000  Level FlightAware Transoceanic
10:29PM 51.1011 -36.1555 89° East 580 667 33,000  Level FlightAware Transoceanic
10:30PM 51.1034 -35.8988 89° East 580 667 33,000  Level FlightAware Transoceanic
10:31PM 51.1050 -35.6420 90° East 580 667 33,000  Level FlightAware Transoceanic
10:32PM 51.1062 -35.3852 90° East 580 667 33,000  Level FlightAware Transoceanic
10:33PM 51.1067 -35.1284 90° East 580 667 33,000  Level FlightAware Transoceanic
10:34PM 51.1067 -34.8716 90° East 580 667 33,000  Level FlightAware Transoceanic
10:35PM 51.1062 -34.6148 90° East 580 667 33,000  Level FlightAware Transoceanic
10:36PM 51.1050 -34.3580 90° East 580 667 33,000  Level FlightAware Transoceanic
10:37PM 51.1034 -34.1012 91° East 580 667 33,000  Level FlightAware Transoceanic
10:38PM 51.1011 -33.8445 91° East 580 667 33,000  Level FlightAware Transoceanic
10:39PM 51.0983 -33.5877 91° East 580 667 33,000  Level FlightAware Transoceanic
10:40PM 51.0949 -33.3311 91° East 580 667 33,000  Level FlightAware Transoceanic
10:41PM 51.0910 -33.0744 91° East 580 667 33,000  Level FlightAware Transoceanic
10:42PM 51.0865 -32.8178 92° East 580 667 33,000  Level FlightAware Transoceanic
10:43PM 51.0814 -32.5612 92° East 580 667 33,000  Level FlightAware Transoceanic
10:44PM 51.0758 -32.3047 92° East 580 667 33,000  Level FlightAware Transoceanic
10:45PM 51.0696 -32.0483 92° East 580 667 33,000  Level FlightAware Transoceanic
10:46PM 51.0629 -31.7920 92° East 580 667 33,000  Level FlightAware Transoceanic
10:47PM 51.0556 -31.5357 93° East 580 667 33,000  Level FlightAware Transoceanic
10:48PM 51.0477 -31.2795 93° East 580 667 33,000  Level FlightAware Transoceanic
10:49PM 51.0393 -31.0234 93° East 580 667 33,000  Level FlightAware Transoceanic
10:50PM 51.0303 -30.7674 93° East 580 667 33,000  Level FlightAware Transoceanic
10:51PM 51.0208 -30.5115 93° East 580 667 33,000  Level FlightAware Transoceanic
10:52PM 51.0107 -30.2557 94° East 580 667 33,000  Level FlightAware Transoceanic
10:53PM 51.0027 -30.0639 94° East  Level FlightAware Approximate
10:54PM 50.9945 -29.8723 94° East  Level FlightAware Approximate
10:55PM 50.9964 -29.9363 95° East  Level FlightAware Approximate
10:56PM 50.9855 -29.7450 95° East  Level FlightAware Approximate
10:57PM 50.9743 -29.5538 95° East  Level FlightAware Approximate
10:58PM 50.9628 -29.3627 95° East  Level FlightAware Approximate
10:59PM 50.9510 -29.1717 96° East  Level FlightAware Approximate
11:00PM 50.9388 -28.9807 96° East  Level FlightAware Approximate
11:01PM 50.9263 -28.7899 96° East  Level FlightAware Approximate
11:02PM 50.9136 -28.5992 96° East  Level FlightAware Approximate
11:03PM 50.9005 -28.4086 96° East  Level FlightAware Approximate
11:04PM 50.8871 -28.2181 96° East  Level FlightAware Approximate
11:05PM 50.8734 -28.0277 96° East  Level FlightAware Approximate
11:06PM 50.8594 -27.8374 97° East  Level FlightAware Approximate
11:07PM 50.8451 -27.6473 97° East  Level FlightAware Approximate
11:08PM 50.8304 -27.4572 97° East  Level FlightAware Approximate
11:09PM 50.8155 -27.2673 97° East  Level FlightAware Approximate
11:10PM 50.8003 -27.0775 97° East  Level FlightAware Approximate
11:11PM 50.7847 -26.8878 97° East  Level FlightAware Approximate
11:12PM 50.7688 -26.6983 97° East  Level FlightAware Approximate
11:13PM 50.7527 -26.5088 98° East  Level FlightAware Approximate
11:14PM 50.7362 -26.3195 98° East  Level FlightAware Approximate
11:15PM 50.7194 -26.1304 98° East  Level FlightAware Approximate
11:16PM 50.7023 -25.9414 98° East  Level FlightAware Approximate
11:17PM 50.6849 -25.7525 98° East  Level FlightAware Approximate
11:18PM 50.6672 -25.5638 98° East  Level FlightAware Approximate
11:19PM 50.6492 -25.3752 98° East  Level FlightAware Approximate
11:20PM 50.6309 -25.1867 99° East  Level FlightAware Approximate
11:21PM 50.6123 -24.9984 99° East  Level FlightAware Approximate
11:22PM 50.5934 -24.8103 99° East  Level FlightAware Approximate
11:23PM 50.5742 -24.6223 99° East  Level FlightAware Approximate
11:24PM 50.5547 -24.4344 99° East  Level FlightAware Approximate
11:25PM 50.5348 -24.2467 99° East  Level FlightAware Approximate
11:26PM 50.5147 -24.0592 100° East  Level FlightAware Approximate
11:27PM 50.4943 -23.8718 100° East  Level FlightAware Approximate
11:28PM 50.4736 -23.6846 100° East  Level FlightAware Approximate
11:29PM 50.4526 -23.4976 100° East  Level FlightAware Approximate
11:30PM 50.4312 -23.3107 100° East  Level FlightAware Approximate
11:31PM 50.4096 -23.1240 100° East  Level FlightAware Approximate
11:32PM 50.3877 -22.9375 100° East  Level FlightAware Approximate
11:33PM 50.3655 -22.7511 101° East  Level FlightAware Approximate
11:34PM 50.3430 -22.5650 101° East  Level FlightAware Approximate
11:35PM 50.3201 -22.3790 101° East  Level FlightAware Approximate
11:36PM 50.2970 -22.1931 101° East  Level FlightAware Approximate
11:37PM 50.2736 -22.0075 101° East  Level FlightAware Approximate
11:38PM 50.2499 -21.8220 101° East  Level FlightAware Approximate
11:39PM 50.2259 -21.6368 101° East  Level FlightAware Approximate
11:40PM 50.2016 -21.4517 102° East  Level FlightAware Approximate
11:41PM 50.1771 -21.2668 102° East  Level FlightAware Approximate
11:42PM 50.1522 -21.0821 102° East  Level FlightAware Approximate
11:43PM 50.1270 -20.8976 102° East  Level FlightAware Approximate
11:44PM 50.1016 -20.7132 102° East  Level FlightAware Approximate
11:45PM 50.0758 -20.5291 102° East  Level FlightAware Approximate
11:46PM 50.0498 -20.3452 102° East  Level FlightAware Approximate
11:47PM 50.0234 -20.1615 103° East  Level FlightAware Approximate
11:48PM 49.9992 -19.9774 93° East  Level FlightAware Approximate
11:49PM 49.9924 -19.7896 93° East  Level FlightAware Approximate
11:50PM 49.9852 -19.6019 93° East  Level FlightAware Approximate
11:51PM 49.9778 -19.4143 93° East  Level FlightAware Approximate
11:52PM 49.9700 -19.2267 94° East  Level FlightAware Approximate
11:53PM 49.9619 -19.0391 94° East  Level FlightAware Approximate
11:54PM 49.9536 -18.8516 94° East  Level FlightAware Approximate
11:55PM 49.9449 -18.6642 94° East  Level FlightAware Approximate
11:56PM 49.9360 -18.4769 94° East  Level FlightAware Approximate
11:57PM 49.9267 -18.2896 94° East  Level FlightAware Approximate
11:58PM 49.9171 -18.1024 94° East  Level FlightAware Approximate
11:59PM 49.9073 -17.9152 95° East  Level FlightAware Approximate
12:00AM 49.8971 -17.7282 95° East  Level FlightAware Approximate
12:01AM 49.8866 -17.5412 95° East  Level FlightAware Approximate
12:02AM 49.8769 -17.3542 94° East  Level FlightAware Approximate
12:03AM 49.8672 -17.1672 94° East  Level FlightAware Approximate
12:04AM 49.8573 -16.9803 95° East  Level FlightAware Approximate
12:05AM 49.8471 -16.7934 95° East  Level FlightAware Approximate
12:06AM 49.8365 -16.6067 95° East  Level FlightAware Approximate
12:07AM 49.8257 -16.4200 95° East  Level FlightAware Approximate
12:08AM 49.8146 -16.2334 95° East  Level FlightAware Approximate
12:09AM 49.8032 -16.0469 95° East  Level FlightAware Approximate
12:10AM 49.7914 -15.8604 95° East  Level FlightAware Approximate
12:11AM 49.7794 -15.6741 96° East  Level FlightAware Approximate
12:12AM 49.7671 -15.4879 96° East  Level FlightAware Approximate
12:13AM 49.7545 -15.3017 96° East  Level FlightAware Approximate
12:14AM 49.7415 -15.1157 96° East  Level FlightAware Approximate
12:15AM 49.7279 -14.9298 97° East  Level FlightAware Approximate
12:16AM 49.7132 -14.7442 97° East  Level FlightAware Approximate
12:17AM 49.6983 -14.5587 97° East  Level FlightAware Approximate
12:18AM 49.6831 -14.3733 97° East  Level FlightAware Approximate
12:19AM 49.6675 -14.1880 97° East  Level FlightAware Approximate
12:20AM 49.6517 -14.0028 97° East  Level FlightAware Approximate
12:21AM 49.6356 -13.8177 98° East  Level FlightAware Approximate
12:22AM 49.6192 -13.6328 98° East  Level FlightAware Approximate
12:23AM 49.6025 -13.4480 98° East  Level FlightAware Approximate
12:24AM 49.5855 -13.2633 98° East  Level FlightAware Approximate
12:25AM 49.5682 -13.0788 98° East  Level FlightAware Approximate
12:26AM 49.5506 -12.8944 98° East  Level FlightAware Approximate
12:27AM 49.5327 -12.7101 98° East  Level FlightAware Approximate
12:28AM 49.5151 -12.5258 98° East  Level FlightAware Approximate
12:29AM 49.4972 -12.3417 98° East  Level FlightAware Approximate
12:30AM 49.4790 -12.1577 99° East  Level FlightAware Approximate
12:31AM 49.4605 -11.9738 99° East  Level FlightAware Approximate
12:32AM 49.4418 -11.7901 99° East  Level FlightAware Approximate
12:33AM 49.4227 -11.6065 99° East  Level FlightAware Approximate
12:34AM 49.4034 -11.4231 99° East  Level FlightAware Approximate
12:35AM 49.3837 -11.2398 99° East  Level FlightAware Approximate
12:36AM 49.3638 -11.0566 99° East  Level FlightAware Approximate
12:37AM 49.3436 -10.8736 100° East  Level FlightAware Approximate
12:38AM 49.3231 -10.6908 100° East  Level FlightAware Approximate
12:39AM 49.3023 -10.5081 100° East  Level FlightAware Approximate
12:40AM 49.2812 -10.3255 100° East  Level FlightAware Approximate
12:41AM 49.2598 -10.1432 100° East  Level FlightAware Approximate
12:42AM 49.2382 -9.9609 100° East  Level FlightAware Approximate
12:43AM 49.2162 -9.7789 100° East  Level FlightAware Approximate
12:44AM 49.1940 -9.5970 101° East  Level FlightAware Approximate
12:45AM 49.1715 -9.4152 101° East  Level FlightAware Approximate
12:46AM 49.1487 -9.2337 101° East  Level FlightAware Approximate
12:47AM 49.1256 -9.0523 101° East  Level FlightAware Approximate
12:48AM 49.1022 -8.8710 101° East  Level FlightAware Approximate
12:49AM 49.0786 -8.6900 101° East  Level FlightAware Approximate
12:50AM 49.0546 -8.5091 101° East  Level FlightAware Approximate
12:51AM 49.0304 -8.3284 101° East  Level FlightAware Approximate
12:52AM 49.0059 -8.1479 102° East  Level FlightAware Approximate
12:53AM 48.9815 -7.9674 100° East  Level FlightAware Approximate
12:54AM 48.9608 -7.7859 100° East  Level FlightAware Approximate
12:55AM 48.9397 -7.6046 100° East  Level FlightAware Approximate
12:56AM 48.9149 -7.4246 103° East  Level FlightAware Approximate
12:57AM 48.8883 -7.2452 103° East  Level FlightAware Approximate
12:58AM 48.8614 -7.0659 103° East  Level FlightAware Approximate
12:59AM 48.8343 -6.8869 103° East  Level FlightAware Approximate
01:00AM 48.8068 -6.7080 103° East  Level FlightAware Approximate
01:01AM 48.7791 -6.5294 103° East  Level FlightAware Approximate
01:02AM 48.7514 -6.3508 103° East  Level FlightAware Approximate
01:03AM 48.7238 -6.1723 103° East  Level FlightAware Approximate
01:04AM 48.6959 -5.9941 103° East  Level FlightAware Approximate
01:04AM 46.6410 -0.9470 103° East 531 611 35,000  Level FlightAware
01:04AM 46.6340 -0.9230 113° Southeast 531 611 35,000  Level FlightAware
01:04AM 46.6320 -0.9140 108° East 531 611 35,000  Level FlightAware
01:05AM 46.6110 -0.8460 114° Southeast 531 611 35,000  Level FlightAware
01:05AM 46.6030 -0.8150 111° Southeast 531 611 35,000  Level FlightAware
01:05AM 46.5980 -0.7980 113° Southeast 531 611 35,000  Level FlightAware
01:05AM 46.5950 -0.7880 114° Southeast 531 611 35,000  Level FlightAware
01:05AM 46.5830 -0.7450 112° Southeast 531 611 35,000  Level FlightAware
01:05AM 46.5740 -0.7130 112° Southeast 531 611 35,000  Level FlightAware
01:05AM 46.5660 -0.6860 113° Southeast 532 612 35,000  Level FlightAware
01:06AM 46.5560 -0.6510 113° Southeast 532 612 35,000  Level FlightAware
01:06AM 46.5520 -0.6350 110° East 532 612 35,000  Level FlightAware
01:08AM 46.6302 -0.9431 290° West  Level Estimated
01:09AM 46.6718 -1.1085 290° West  Level Estimated
01:10AM 46.7131 -1.2741 290° West  Level Estimated
01:11AM 46.7542 -1.4400 290° West  Level Estimated
01:12AM 46.7951 -1.6062 290° West  Level Estimated
01:13AM 46.8357 -1.7726 290° West  Level Estimated
01:14AM 46.8760 -1.9392 290° West  Level Estimated
01:15AM 46.9162 -2.1062 289° West  Level Estimated
01:16AM 46.9560 -2.2733 289° West  Level Estimated
01:17AM 46.9957 -2.4407 289° West  Level Estimated
01:18AM 47.0351 -2.6084 289° West  Level Estimated
01:19AM 47.0742 -2.7763 289° West  Level Estimated
01:20AM 47.1131 -2.9444 289° West  Level Estimated
01:21AM 47.1518 -3.1128 289° West  Level Estimated
01:22AM 47.1902 -3.2815 289° West  Level Estimated
01:23AM 47.2283 -3.4504 288° West  Level Estimated
01:24AM 47.2663 -3.6195 288° West  Level Estimated
01:25AM 47.3039 -3.7889 288° West  Level Estimated
01:26AM 47.3413 -3.9585 288° West  Level Estimated
01:27AM 47.3785 -4.1283 288° West  Level Estimated
01:28AM 47.4154 -4.2984 288° West  Level Estimated
01:29AM 47.4520 -4.4687 288° West  Level Estimated
01:30AM 47.4885 -4.6393 288° West  Level Estimated
01:31AM 47.5246 -4.8101 287° West  Level Estimated
01:32AM 47.5605 -4.9811 287° West  Level Estimated
01:33AM 47.5961 -5.1524 287° West  Level Estimated
01:34AM 47.6315 -5.3239 287° West  Level Estimated
01:35AM 47.6667 -5.4956 287° West  Level Estimated
01:36AM 47.7015 -5.6676 287° West  Level Estimated
01:37AM 47.7362 -5.8398 287° West  Level Estimated
01:38AM 47.7705 -6.0122 287° West  Level Estimated
01:39AM 47.8046 -6.1848 286° West  Level Estimated
01:40AM 47.8385 -6.3577 286° West  Level Estimated
01:41AM 47.8721 -6.5308 286° West  Level Estimated
01:42AM 47.9054 -6.7041 286° West  Level Estimated
01:43AM 47.9384 -6.8777 286° West  Level Estimated
01:44AM 47.9712 -7.0514 286° West  Level Estimated
01:45AM 48.0038 -7.2254 286° West  Level Estimated
01:46AM 48.0360 -7.3996 286° West  Level Estimated
01:47AM 48.0681 -7.5740 285° West  Level Estimated
01:48AM 48.0998 -7.7487 285° West  Level Estimated
01:49AM 48.1313 -7.9235 285° West  Level Estimated
01:50AM 48.1625 -8.0986 285° West  Level Estimated
01:51AM 48.1935 -8.2739 285° West  Level Estimated
01:52AM 48.2241 -8.4494 285° West  Level Estimated
01:53AM 48.2546 -8.6250 285° West  Level Estimated
01:54AM 48.2847 -8.8010 285° West  Level Estimated
01:55AM 48.3146 -8.9771 284° West  Level Estimated
01:56AM 48.3442 -9.1534 284° West  Level Estimated
01:57AM 48.3735 -9.3299 284° West  Level Estimated
01:58AM 48.4026 -9.5066 284° West  Level Estimated
01:59AM 48.4314 -9.6836 284° West  Level Estimated
02:00AM 48.4599 -9.8607 284° West  Level Estimated
02:01AM 48.4882 -10.0380 284° West  Level Estimated
02:02AM 48.5162 -10.2155 283° West  Level Estimated
02:03AM 48.5439 -10.3932 283° West  Level Estimated
02:04AM 48.5713 -10.5711 283° West  Level Estimated
02:05AM 48.5985 -10.7493 283° West  Level Estimated
02:06AM 48.6254 -10.9275 283° West  Level Estimated
02:07AM 48.6520 -11.1060 283° West  Level Estimated
02:08AM 48.6783 -11.2847 283° West  Level Estimated
02:09AM 48.7044 -11.4635 283° West  Level Estimated
02:10AM 48.7301 -11.6426 282° West  Level Estimated
02:11AM 48.7556 -11.8218 282° West  Level Estimated
02:12AM 48.7809 -12.0012 282° West  Level Estimated
02:13AM 48.8058 -12.1808 282° West  Level Estimated
02:14AM 48.8305 -12.3605 282° West  Level Estimated
02:15AM 48.8549 -12.5405 282° West  Level Estimated
02:16AM 48.8790 -12.7206 282° West  Level Estimated
02:17AM 48.9028 -12.9009 281° West  Level Estimated
02:18AM 48.9264 -13.0813 281° West  Level Estimated
02:19AM 48.9496 -13.2619 281° West  Level Estimated
02:20AM 48.9726 -13.4427 281° West  Level Estimated
02:21AM 48.9953 -13.6237 281° West  Level Estimated
02:22AM 49.0177 -13.8048 281° West  Level Estimated
02:23AM 49.0399 -13.9861 281° West  Level Estimated
02:24AM 49.0617 -14.1675 280° West  Level Estimated
02:25AM 49.0833 -14.3491 280° West  Level Estimated
02:26AM 49.1046 -14.5309 280° West  Level Estimated
02:27AM 49.1255 -14.7128 280° West  Level Estimated
02:28AM 49.1463 -14.8949 280° West  Level Estimated
02:29AM 49.1667 -15.0771 280° West  Level Estimated
02:30AM 49.1868 -15.2595 280° West  Level Estimated
02:31AM 49.2067 -15.4420 280° West  Level Estimated
02:32AM 49.2262 -15.6246 279° West  Level Estimated
02:33AM 49.2455 -15.8074 279° West  Level Estimated
02:34AM 49.2645 -15.9904 279° West  Level Estimated
02:35AM 49.2832 -16.1735 279° West  Level Estimated
02:36AM 49.3016 -16.3567 279° West  Level Estimated
02:37AM 49.3197 -16.5400 279° West  Level Estimated
02:38AM 49.3375 -16.7235 279° West  Level Estimated
02:39AM 49.3550 -16.9071 278° West  Level Estimated
02:40AM 49.3723 -17.0909 278° West  Level Estimated
02:41AM 49.3892 -17.2748 278° West  Level Estimated
02:42AM 49.4059 -17.4588 278° West  Level Estimated
02:43AM 49.4222 -17.6429 278° West  Level Estimated
02:44AM 49.4383 -17.8272 278° West  Level Estimated
02:45AM 49.4541 -18.0115 278° West  Level Estimated
02:46AM 49.4696 -18.1960 277° West  Level Estimated
02:47AM 49.4848 -18.3806 277° West  Level Estimated
02:48AM 49.4997 -18.5653 277° West  Level Estimated
02:49AM 49.5143 -18.7502 277° West  Level Estimated
02:50AM 49.5286 -18.9351 277° West  Level Estimated
02:51AM 49.5426 -19.1202 277° West  Level Estimated
02:52AM 49.5563 -19.3053 277° West  Level Estimated
02:53AM 49.5697 -19.4906 276° West  Level Estimated
02:54AM 49.5829 -19.6759 276° West  Level Estimated
02:55AM 49.5957 -19.8614 276° West  Level Estimated
02:56AM 49.6082 -20.0469 276° West  Level Estimated
02:57AM 49.6205 -20.2326 276° West  Level Estimated
02:58AM 49.6324 -20.4183 276° West  Level Estimated
02:59AM 49.6440 -20.6042 276° West  Level Estimated
03:00AM 49.6554 -20.7901 275° West  Level Estimated
03:01AM 49.6664 -20.9761 275° West  Level Estimated
03:02AM 49.6772 -21.1621 275° West  Level Estimated
03:03AM 49.6876 -21.3483 275° West  Level Estimated
03:04AM 49.6978 -21.5346 275° West  Level Estimated
03:05AM 49.7076 -21.7209 275° West  Level Estimated
03:06AM 49.7172 -21.9073 275° West  Level Estimated
03:07AM 49.7265 -22.0938 274° West  Level Estimated
03:08AM 49.7354 -22.2803 274° West  Level Estimated
03:09AM 49.7441 -22.4669 274° West  Level Estimated
03:10AM 49.7524 -22.6536 274° West  Level Estimated
03:11AM 49.7605 -22.8403 274° West  Level Estimated
03:12AM 49.7683 -23.0271 274° West  Level Estimated
03:13AM 49.7757 -23.2139 274° West  Level Estimated
03:14AM 49.7829 -23.4009 273° West  Level Estimated
03:15AM 49.7897 -23.5878 273° West  Level Estimated
03:16AM 49.7963 -23.7748 273° West  Level Estimated
03:17AM 49.8026 -23.9619 273° West  Level Estimated
03:18AM 49.8085 -24.1490 273° West  Level Estimated
03:19AM 49.8142 -24.3362 273° West  Level Estimated
03:20AM 49.8195 -24.5234 273° West  Level Estimated
03:21AM 49.8246 -24.7106 272° West  Level Estimated
03:22AM 49.8293 -24.8979 272° West  Level Estimated
03:23AM 49.8338 -25.0852 272° West  Level Estimated
03:24AM 49.8379 -25.2726 272° West  Level Estimated
03:25AM 49.8417 -25.4599 272° West  Level Estimated
03:26AM 49.8453 -25.6473 272° West  Level Estimated
03:27AM 49.8485 -25.8348 272° West  Level Estimated
03:28AM 49.8515 -26.0222 271° West  Level Estimated
03:29AM 49.8541 -26.2097 271° West  Level Estimated
03:30AM 49.8564 -26.3972 271° West  Level Estimated
03:31AM 49.8585 -26.5847 271° West  Level Estimated
03:32AM 49.8602 -26.7722 271° West  Level Estimated
03:33AM 49.8616 -26.9598 271° West  Level Estimated
03:34AM 49.8627 -27.1473 271° West  Level Estimated
03:35AM 49.8635 -27.3349 270° West  Level Estimated
03:36AM 49.8641 -27.5225 270° West  Level Estimated
03:37AM 49.8643 -27.7100 270° West  Level Estimated
03:38AM 49.8642 -27.8976 270° West  Level Estimated
03:39AM 49.8638 -28.0852 270° West  Level Estimated
03:40AM 49.8631 -28.2727 270° West  Level Estimated
03:41AM 49.8621 -28.4603 270° West  Level Estimated
03:42AM 49.8608 -28.6478 269° West  Level Estimated
03:43AM 49.8592 -28.8354 269° West  Level Estimated
03:44AM 49.8573 -29.0229 269° West  Level Estimated
03:45AM 49.8551 -29.2104 269° West  Level Estimated
03:46AM 49.8526 -29.3979 269° West  Level Estimated
03:47AM 49.8498 -29.5853 269° West  Level Estimated
03:48AM 49.8467 -29.7728 269° West  Level Estimated
03:49AM 49.8432 -29.9602 268° West  Level Estimated
03:50AM 49.8395 -30.1476 268° West  Level Estimated
03:51AM 49.8355 -30.3349 268° West  Level Estimated
03:52AM 49.8312 -30.5223 268° West  Level Estimated
03:53AM 49.8266 -30.7096 268° West  Level Estimated
03:54AM 49.8216 -30.8968 268° West  Level Estimated
03:55AM 49.8164 -31.0840 268° West  Level Estimated
03:56AM 49.8109 -31.2712 267° West  Level Estimated
03:57AM 49.8050 -31.4584 267° West  Level Estimated
03:58AM 49.7989 -31.6454 267° West  Level Estimated
03:59AM 49.7925 -31.8325 267° West  Level Estimated
04:00AM 49.7858 -32.0195 267° West  Level Estimated
04:01AM 49.7787 -32.2064 267° West  Level Estimated
04:02AM 49.7714 -32.3933 267° West  Level Estimated
04:03AM 49.7637 -32.5801 266° West  Level Estimated
04:04AM 49.7558 -32.7669 266° West  Level Estimated
04:05AM 49.7476 -32.9536 266° West  Level Estimated
04:06AM 49.7390 -33.1402 266° West  Level Estimated
04:07AM 49.7302 -33.3268 266° West  Level Estimated
04:08AM 49.7210 -33.5133 266° West  Level Estimated
04:09AM 49.7116 -33.6997 266° West  Level Estimated
04:10AM 49.7019 -33.8860 265° West  Level Estimated
04:11AM 49.6918 -34.0723 265° West  Level Estimated
04:12AM 49.6815 -34.2585 265° West  Level Estimated
04:13AM 49.6709 -34.4446 265° West  Level Estimated
04:14AM 49.6600 -34.6307 265° West  Level Estimated
04:15AM 49.6487 -34.8166 265° West  Level Estimated
04:16AM 49.6372 -35.0025 265° West  Level Estimated
04:17AM 49.6254 -35.1883 264° West  Level Estimated
04:18AM 49.6133 -35.3739 264° West  Level Estimated
04:19AM 49.6009 -35.5595 264° West  Level Estimated
04:20AM 49.5882 -35.7450 264° West  Level Estimated
04:21AM 49.5751 -35.9304 264° West  Level Estimated
04:22AM 49.5618 -36.1157 264° West  Level Estimated
04:23AM 49.5482 -36.3009 264° West  Level Estimated
04:24AM 49.5344 -36.4860 263° West  Level Estimated
04:25AM 49.5202 -36.6710 263° West  Level Estimated
04:26AM 49.5057 -36.8559 263° West  Level Estimated
04:27AM 49.4909 -37.0406 263° West  Level Estimated
04:28AM 49.4758 -37.2253 263° West  Level Estimated
04:29AM 49.4605 -37.4098 263° West  Level Estimated
04:30AM 49.4448 -37.5942 263° West  Level Estimated
04:31AM 49.4288 -37.7785 262° West  Level Estimated
04:32AM 49.4126 -37.9627 262° West  Level Estimated
04:33AM 49.3961 -38.1468 262° West  Level Estimated
04:34AM 49.3792 -38.3307 262° West  Level Estimated
04:35AM 49.3621 -38.5145 262° West  Level Estimated
04:36AM 49.3447 -38.6982 262° West  Level Estimated
04:37AM 49.3270 -38.8817 262° West  Level Estimated
04:38AM 49.3090 -39.0652 262° West  Level Estimated
04:39AM 49.2907 -39.2484 261° West  Level Estimated
04:40AM 49.2722 -39.4316 261° West  Level Estimated
04:41AM 49.2533 -39.6146 261° West  Level Estimated
04:42AM 49.2341 -39.7974 261° West  Level Estimated
04:43AM 49.2147 -39.9801 261° West  Level Estimated
04:44AM 49.1950 -40.1627 261° West  Level Estimated
04:45AM 49.1750 -40.3451 261° West  Level Estimated
04:46AM 49.1547 -40.5274 260° West  Level Estimated
04:47AM 49.1341 -40.7096 260° West  Level Estimated
04:48AM 49.1132 -40.8915 260° West  Level Estimated
04:49AM 49.0920 -41.0734 260° West  Level Estimated
04:50AM 49.0706 -41.2550 260° West  Level Estimated
04:51AM 49.0489 -41.4365 260° West  Level Estimated
04:52AM 49.0268 -41.6179 260° West  Level Estimated
04:53AM 49.0045 -41.7991 259° West  Level Estimated
04:54AM 48.9819 -41.9801 259° West  Level Estimated
04:55AM 48.9591 -42.1610 259° West  Level Estimated
04:56AM 48.9359 -42.3416 259° West  Level Estimated
04:57AM 48.9125 -42.5222 259° West  Level Estimated
04:58AM 48.8888 -42.7025 259° West  Level Estimated
04:59AM 48.8648 -42.8827 259° West  Level Estimated
05:00AM 48.8405 -43.0627 258° West  Level Estimated
05:01AM 48.8160 -43.2425 258° West  Level Estimated
05:02AM 48.7911 -43.4222 258° West  Level Estimated
05:03AM 48.7660 -43.6017 258° West  Level Estimated
05:04AM 48.7407 -43.7810 258° West  Level Estimated
05:05AM 48.7150 -43.9601 258° West  Level Estimated
05:06AM 48.6890 -44.1390 258° West  Level Estimated
05:07AM 48.6628 -44.3177 258° West  Level Estimated
05:08AM 48.6363 -44.4963 257° West  Level Estimated
05:09AM 48.6095 -44.6747 257° West  Level Estimated
05:10AM 48.5825 -44.8529 257° West  Level Estimated
05:11AM 48.5552 -45.0308 257° West  Level Estimated
05:12AM 48.5276 -45.2086 257° West  Level Estimated
05:13AM 48.4997 -45.3862 257° West  Level Estimated
05:14AM 48.4716 -45.5636 257° West  Level Estimated
05:15AM 48.4431 -45.7408 256° West  Level Estimated
05:16AM 48.4145 -45.9179 256° West  Level Estimated
05:17AM 48.3855 -46.0947 256° West  Level Estimated
05:18AM 48.3563 -46.2713 256° West  Level Estimated
05:19AM 48.3268 -46.4477 256° West  Level Estimated
05:20AM 48.2970 -46.6239 256° West  Level Estimated
05:21AM 48.2669 -46.7999 256° West  Level Estimated
05:22AM 48.2366 -46.9756 256° West  Level Estimated
05:23AM 48.2061 -47.1512 255° West  Level Estimated
05:24AM 48.1752 -47.3266 255° West  Level Estimated
05:25AM 48.1441 -47.5017 255° West  Level Estimated
05:26AM 48.1128 -47.6767 255° West  Level Estimated
05:27AM 48.0811 -47.8514 255° West  Level Estimated
05:28AM 48.0492 -48.0259 255° West  Level Estimated
05:29AM 48.0170 -48.2002 255° West  Level Estimated
05:30AM 47.9846 -48.3742 255° West  Level Estimated
05:31AM 47.9519 -48.5481 254° West  Level Estimated
05:32AM 47.9190 -48.7217 254° West  Level Estimated
05:33AM 47.8857 -48.8951 254° West  Level Estimated
05:34AM 47.8523 -49.0683 254° West  Level Estimated
05:35AM 47.8185 -49.2413 254° West  Level Estimated
05:36AM 47.7845 -49.4140 254° West  Level Estimated
05:37AM 47.7503 -49.5865 254° West  Level Estimated
05:38AM 47.7158 -49.7588 253° West  Level Estimated
05:39AM 47.6810 -49.9309 253° West  Level Estimated
05:40AM 47.6460 -50.1027 253° West  Level Estimated
05:41AM 47.6107 -50.2743 253° West  Level Estimated
05:42AM 47.5751 -50.4456 253° West  Level Estimated
05:43AM 47.5393 -50.6168 253° West  Level Estimated
05:44AM 47.5033 -50.7877 253° West  Level Estimated
05:45AM 47.4670 -50.9583 253° West  Level Estimated
05:46AM 47.4304 -51.1287 252° West  Level Estimated
05:47AM 47.3936 -51.2989 252° West  Level Estimated
05:48AM 47.3566 -51.4689 252° West  Level Estimated
05:49AM 47.3192 -51.6386 252° West  Level Estimated
05:50AM 47.2817 -51.8080 252° West  Level Estimated
05:51AM 47.2439 -51.9773 252° West  Level Estimated
05:52AM 47.2058 -52.1463 252° West  Level Estimated
05:53AM 47.1675 -52.3150 252° West  Level Estimated
05:54AM 47.1290 -52.4835 251° West  Level Estimated
05:55AM 47.0902 -52.6517 251° West  Level Estimated
05:56AM 47.0511 -52.8197 251° West  Level Estimated
05:57AM 47.0118 -52.9875 251° West  Level Estimated
05:58AM 46.9723 -53.1550 251° West  Level Estimated
05:59AM 46.9325 -53.3223 251° West  Level Estimated
06:00AM 46.8925 -53.4893 251° West  Level Estimated
06:01AM 46.8522 -53.6560 251° West  Level Estimated
06:02AM 46.8117 -53.8226 250° West  Level Estimated
06:03AM 46.7710 -53.9888 250° West  Level Estimated
06:04AM 46.7300 -54.1548 250° West  Level Estimated
06:05AM 46.6887 -54.3206 250° West  Level Estimated
06:06AM 46.6473 -54.4861 250° West  Level Estimated
06:07AM 46.6055 -54.6513 250° West  Level Estimated
06:08AM 46.5636 -54.8163 250° West  Level Estimated
06:09AM 46.5214 -54.9811 250° West  Level Estimated
06:10AM 46.4790 -55.1455 250° West  Level Estimated
06:11AM 46.4364 -55.3098 249° West  Level Estimated
06:12AM 46.3935 -55.4737 249° West  Level Estimated
06:13AM 46.3503 -55.6375 249° West  Level Estimated
06:14AM 46.3070 -55.8009 249° West  Level Estimated
06:15AM 46.2634 -55.9641 249° West  Level Estimated
06:16AM 46.2196 -56.1270 249° West  Level Estimated
06:17AM 46.1755 -56.2897 249° West  Level Estimated
06:18AM 46.1313 -56.4521 249° West  Level Estimated
06:19AM 46.0868 -56.6143 248° West  Level Estimated
06:20AM 46.0420 -56.7761 248° West  Level Estimated
06:21AM 45.9970 -56.9378 248° West  Level Estimated
06:22AM 45.9519 -57.0991 248° West  Level Estimated
06:23AM 45.9064 -57.2602 248° West  Level Estimated
06:24AM 45.8608 -57.4211 248° West  Level Estimated
06:25AM 45.8149 -57.5816 248° West  Level Estimated
06:26AM 45.7688 -57.7419 248° West  Level Estimated
06:27AM 45.7225 -57.9020 248° West  Level Estimated
06:28AM 45.6759 -58.0617 247° West  Level Estimated
06:29AM 45.6292 -58.2212 247° West  Level Estimated
06:30AM 45.5822 -58.3805 247° West  Level Estimated
06:31AM 45.5350 -58.5395 247° West  Level Estimated
06:32AM 45.4875 -58.6982 247° West  Level Estimated
06:33AM 45.4399 -58.8566 247° West  Level Estimated
06:34AM 45.3920 -59.0148 247° West  Level Estimated
06:35AM 45.3439 -59.1727 247° West  Level Estimated
06:36AM 45.2957 -59.3303 247° West  Level Estimated
06:37AM 45.2471 -59.4877 246° West  Level Estimated
06:38AM 45.1984 -59.6447 246° West  Level Estimated
06:39AM 45.1494 -59.8016 246° West  Level Estimated
06:40AM 45.1003 -59.9581 246° West  Level Estimated
06:41AM 45.0509 -60.1144 246° West  Level Estimated
06:42AM 45.0013 -60.2704 246° West  Level Estimated
06:43AM 44.9515 -60.4262 246° West  Level Estimated
06:44AM 44.9015 -60.5816 246° West  Level Estimated
06:45AM 44.8513 -60.7368 246° West  Level Estimated
06:46AM 44.8009 -60.8918 245° Southwest  Level Estimated
06:47AM 44.7502 -61.0464 245° Southwest  Level Estimated
06:48AM 44.6994 -61.2008 245° Southwest  Level Estimated
06:49AM 44.6483 -61.3549 245° Southwest  Level Estimated
06:50AM 44.5970 -61.5088 245° Southwest  Level Estimated
06:51AM 44.5456 -61.6623 245° Southwest  Level Estimated
06:52AM 44.4939 -61.8157 245° Southwest  Level Estimated
06:53AM 44.4420 -61.9687 245° Southwest  Level Estimated
06:54AM 44.3899 -62.1214 245° Southwest  Level Estimated
06:55AM 44.3377 -62.2739 244° Southwest  Level Estimated
06:56AM 44.2852 -62.4261 244° Southwest  Level Estimated
06:57AM 44.2325 -62.5781 244° Southwest  Level Estimated
06:58AM 44.1796 -62.7298 244° Southwest  Level Estimated
06:59AM 44.1265 -62.8811 244° Southwest  Level Estimated
07:00AM 44.0732 -63.0323 244° Southwest  Level Estimated
07:01AM 44.0197 -63.1831 244° Southwest  Level Estimated
07:02AM 43.9660 -63.3337 244° Southwest  Level Estimated
07:03AM 43.9121 -63.4840 244° Southwest  Level Estimated
07:04AM 43.8581 -63.6340 243° Southwest  Level Estimated
07:05AM 43.8038 -63.7838 243° Southwest  Level Estimated
07:06AM 43.7493 -63.9333 243° Southwest  Level Estimated
07:07AM 43.6946 -64.0825 243° Southwest  Level Estimated
07:08AM 43.6398 -64.2315 243° Southwest  Level Estimated
07:09AM 43.5847 -64.3801 243° Southwest  Level Estimated
07:10AM 43.5294 -64.5285 243° Southwest  Level Estimated
07:11AM 43.4740 -64.6767 243° Southwest  Level Estimated
07:12AM 43.4184 -64.8245 243° Southwest  Level Estimated
07:13AM 43.3626 -64.9721 243° Southwest  Level Estimated
07:14AM 43.3065 -65.1194 242° Southwest  Level Estimated
07:15AM 43.2504 -65.2664 242° Southwest  Level Estimated
07:16AM 43.1940 -65.4132 242° Southwest  Level Estimated
07:17AM 43.1374 -65.5597 242° Southwest  Level Estimated
07:18AM 43.0806 -65.7059 242° Southwest  Level Estimated
07:19AM 43.0237 -65.8519 242° Southwest  Level Estimated
07:20AM 42.9665 -65.9976 242° Southwest  Level Estimated
07:21AM 42.9092 -66.1430 242° Southwest  Level Estimated
07:22AM 42.8517 -66.2881 242° Southwest  Level Estimated
07:23AM 42.7940 -66.4330 242° Southwest  Level Estimated
07:24AM 42.7362 -66.5776 241° Southwest  Level Estimated
07:25AM 42.6781 -66.7219 241° Southwest  Level Estimated
07:26AM 42.6199 -66.8660 241° Southwest  Level Estimated
07:27AM 42.5615 -67.0098 241° Southwest  Level Estimated
07:28AM 42.5029 -67.1533 241° Southwest  Level Estimated
07:29AM 42.4441 -67.2966 241° Southwest  Level Estimated
07:30AM 42.3852 -67.4396 241° Southwest  Level Estimated
07:31AM 42.3261 -67.5823 241° Southwest  Level Estimated
07:32AM 42.2668 -67.7247 241° Southwest  Level Estimated
07:33AM 42.2073 -67.8669 241° Southwest  Level Estimated
07:34AM 42.1477 -68.0088 240° Southwest  Level Estimated
07:35AM 42.0878 -68.1505 240° Southwest  Level Estimated
07:36AM 42.0278 -68.2919 240° Southwest  Level Estimated
07:37AM 41.9677 -68.4330 240° Southwest  Level Estimated
07:38AM 41.9073 -68.5738 240° Southwest  Level Estimated
07:39AM 41.8468 -68.7144 240° Southwest  Level Estimated
07:40AM 41.7861 -68.8547 240° Southwest  Level Estimated
07:41AM 41.7253 -68.9948 240° Southwest  Level Estimated
07:42AM 41.6642 -69.1345 240° Southwest  Level Estimated
07:43AM 41.6030 -69.2740 240° Southwest  Level Estimated
07:44AM 41.5417 -69.4133 240° Southwest  Level Estimated
07:45AM 41.4801 -69.5523 239° Southwest  Level Estimated
07:46AM 41.4184 -69.6910 239° Southwest  Level Estimated
07:47AM 41.3566 -69.8295 239° Southwest  Level Estimated